sensor_id;sensor_type;location;lat;lon;timestamp;temperature;humidity
52481;DHT22;38393;52.404;13.532;2023-08-07T00:00:39;14.40;99.90
52481;DHT22;38393;52.404;13.532;2023-08-07T00:03:04;14.50;99.90
52481;DHT22;38393;52.404;13.532;2023-08-07T00:05:30;14.40;99.90
52481;DHT22;38393;52.404;13.532;2023-08-07T00:07:55;14.30;99.90
52481;DHT22;38393;52.404;13.532;2023-08-07T00:10:21;14.40;99.90
52481;DHT22;38393;52.404;13.532;2023-08-07T00:12:46;14.30;99.90
52481;DHT22;38393;52.404;13.532;2023-08-07T00:15:12;14.20;99.90
52481;DHT22;38393;52.404;13.532;2023-08-07T00:17:37;14.10;99.90
52481;DHT22;38393;52.404;13.532;2023-08-07T00:20:04;14.20;99.90
52481;DHT22;38393;52.404;13.532;2023-08-07T00:22:30;14.20;99.90
52481;DHT22;38393;52.404;13.532;2023-08-07T00:24:55;14.20;99.90
52481;DHT22;38393;52.404;13.532;2023-08-07T00:27:21;14.20;99.90
52481;DHT22;38393;52.404;13.532;2023-08-07T00:29:46;14.20;99.90
52481;DHT22;38393;52.404;13.532;2023-08-07T00:32:12;14.20;99.90
52481;DHT22;38393;52.404;13.532;2023-08-07T00:34:37;14.20;99.90
52481;DHT22;38393;52.404;13.532;2023-08-07T00:37:03;14.20;99.90
52481;DHT22;38393;52.404;13.532;2023-08-07T00:39:29;14.20;99.90
52481;DHT22;38393;52.404;13.532;2023-08-07T00:41:54;14.20;99.90
52481;DHT22;38393;52.404;13.532;2023-08-07T00:44:19;14.20;99.90
52481;DHT22;38393;52.404;13.532;2023-08-07T00:46:45;14.20;99.90
52481;DHT22;38393;52.404;13.532;2023-08-07T00:49:12;14.20;99.90
52481;DHT22;38393;52.404;13.532;2023-08-07T00:51:38;14.20;99.90
52481;DHT22;38393;52.404;13.532;2023-08-07T00:54:05;14.40;99.90
52481;DHT22;38393;52.404;13.532;2023-08-07T00:56:31;14.20;99.90
52481;DHT22;38393;52.404;13.532;2023-08-07T00:58:58;14.20;99.90
52481;DHT22;38393;52.404;13.532;2023-08-07T01:01:24;14.20;99.90
52481;DHT22;38393;52.404;13.532;2023-08-07T01:03:50;14.10;99.90
52481;DHT22;38393;52.404;13.532;2023-08-07T01:06:16;14.10;99.90
52481;DHT22;38393;52.404;13.532;2023-08-07T01:08:41;14.10;99.90
52481;DHT22;38393;52.404;13.532;2023-08-07T01:14:00;14.20;99.90
52481;DHT22;38393;52.404;13.532;2023-08-07T01:16:35;14.20;99.90
52481;DHT22;38393;52.404;13.532;2023-08-07T01:19:03;14.20;99.90
52481;DHT22;38393;52.404;13.532;2023-08-07T01:21:30;14.20;99.90
52481;DHT22;38393;52.404;13.532;2023-08-07T01:24:00;14.10;99.90
52481;DHT22;38393;52.404;13.532;2023-08-07T01:26:25;14.20;99.90
52481;DHT22;38393;52.404;13.532;2023-08-07T01:31:30;14.30;99.90
52481;DHT22;38393;52.404;13.532;2023-08-07T01:34:02;14.30;99.90
52481;DHT22;38393;52.404;13.532;2023-08-07T01:36:29;14.30;99.90
52481;DHT22;38393;52.404;13.532;2023-08-07T01:38:59;14.30;99.90
52481;DHT22;38393;52.404;13.532;2023-08-07T01:41:26;14.30;99.90
52481;DHT22;38393;52.404;13.532;2023-08-07T01:43:52;14.30;99.90
52481;DHT22;38393;52.404;13.532;2023-08-07T01:46:18;14.30;99.90
52481;DHT22;38393;52.404;13.532;2023-08-07T01:48:44;14.20;99.90
52481;DHT22;38393;52.404;13.532;2023-08-07T01:51:09;14.30;99.90
52481;DHT22;38393;52.404;13.532;2023-08-07T01:53:53;14.30;99.90
52481;DHT22;38393;52.404;13.532;2023-08-07T01:56:19;14.20;99.90
52481;DHT22;38393;52.404;13.532;2023-08-07T01:58:44;14.20;99.90
52481;DHT22;38393;52.404;13.532;2023-08-07T02:01:09;14.20;99.90
52481;DHT22;38393;52.404;13.532;2023-08-07T02:03:35;14.20;99.90
52481;DHT22;38393;52.404;13.532;2023-08-07T02:06:00;14.10;99.90
52481;DHT22;38393;52.404;13.532;2023-08-07T02:08:27;14.20;99.90
52481;DHT22;38393;52.404;13.532;2023-08-07T02:10:52;14.10;99.90
52481;DHT22;38393;52.404;13.532;2023-08-07T02:13:18;14.10;99.90
52481;DHT22;38393;52.404;13.532;2023-08-07T02:15:43;14.00;99.90
52481;DHT22;38393;52.404;13.532;2023-08-07T02:18:09;14.10;99.90
52481;DHT22;38393;52.404;13.532;2023-08-07T02:20:34;14.10;99.90
52481;DHT22;38393;52.404;13.532;2023-08-07T02:23:00;14.10;99.90
52481;DHT22;38393;52.404;13.532;2023-08-07T02:25:26;14.10;99.90
52481;DHT22;38393;52.404;13.532;2023-08-07T02:27:51;14.20;99.90
52481;DHT22;38393;52.404;13.532;2023-08-07T02:30:17;14.10;99.90
52481;DHT22;38393;52.404;13.532;2023-08-07T02:32:42;14.00;99.90
52481;DHT22;38393;52.404;13.532;2023-08-07T02:35:10;14.00;99.90
52481;DHT22;38393;52.404;13.532;2023-08-07T02:37:36;14.00;99.90
52481;DHT22;38393;52.404;13.532;2023-08-07T02:40:01;14.00;99.90
52481;DHT22;38393;52.404;13.532;2023-08-07T02:42:27;14.10;99.90
52481;DHT22;38393;52.404;13.532;2023-08-07T02:44:52;14.00;99.90
52481;DHT22;38393;52.404;13.532;2023-08-07T02:47:18;14.00;99.90
52481;DHT22;38393;52.404;13.532;2023-08-07T02:49:43;14.10;99.90
52481;DHT22;38393;52.404;13.532;2023-08-07T02:52:09;14.10;99.90
52481;DHT22;38393;52.404;13.532;2023-08-07T02:54:34;14.20;99.90
52481;DHT22;38393;52.404;13.532;2023-08-07T02:57:00;14.20;99.90
52481;DHT22;38393;52.404;13.532;2023-08-07T02:59:25;14.20;99.90
52481;DHT22;38393;52.404;13.532;2023-08-07T03:01:51;14.30;99.90
52481;DHT22;38393;52.404;13.532;2023-08-07T03:04:16;14.40;99.90
52481;DHT22;38393;52.404;13.532;2023-08-07T03:06:42;14.40;99.90
52481;DHT22;38393;52.404;13.532;2023-08-07T03:09:07;14.40;99.90
52481;DHT22;38393;52.404;13.532;2023-08-07T03:11:33;14.50;99.90
52481;DHT22;38393;52.404;13.532;2023-08-07T03:13:58;14.50;99.90
52481;DHT22;38393;52.404;13.532;2023-08-07T03:16:24;14.40;99.90
52481;DHT22;38393;52.404;13.532;2023-08-07T03:18:49;14.50;99.90
52481;DHT22;38393;52.404;13.532;2023-08-07T03:21:15;14.50;99.90
52481;DHT22;38393;52.404;13.532;2023-08-07T03:23:40;14.60;99.90
52481;DHT22;38393;52.404;13.532;2023-08-07T03:26:08;14.50;99.90
52481;DHT22;38393;52.404;13.532;2023-08-07T03:28:35;14.60;99.90
52481;DHT22;38393;52.404;13.532;2023-08-07T03:31:01;14.60;99.90
52481;DHT22;38393;52.404;13.532;2023-08-07T03:33:26;14.60;99.90
52481;DHT22;38393;52.404;13.532;2023-08-07T03:35:52;14.50;99.90
52481;DHT22;38393;52.404;13.532;2023-08-07T03:38:18;14.50;99.90
52481;DHT22;38393;52.404;13.532;2023-08-07T03:40:43;14.60;99.90
52481;DHT22;38393;52.404;13.532;2023-08-07T03:43:09;14.60;99.90
52481;DHT22;38393;52.404;13.532;2023-08-07T03:45:34;14.40;99.90
52481;DHT22;38393;52.404;13.532;2023-08-07T03:48:00;14.50;99.90
52481;DHT22;38393;52.404;13.532;2023-08-07T03:50:25;14.50;99.90
52481;DHT22;38393;52.404;13.532;2023-08-07T03:52:51;14.50;99.90
52481;DHT22;38393;52.404;13.532;2023-08-07T03:55:16;14.60;99.90
52481;DHT22;38393;52.404;13.532;2023-08-07T03:57:42;14.60;99.90
52481;DHT22;38393;52.404;13.532;2023-08-07T04:00:08;14.60;99.90
52481;DHT22;38393;52.404;13.532;2023-08-07T04:02:34;14.60;99.90
52481;DHT22;38393;52.404;13.532;2023-08-07T04:04:59;14.70;99.90
52481;DHT22;38393;52.404;13.532;2023-08-07T04:07:24;14.70;99.90
52481;DHT22;38393;52.404;13.532;2023-08-07T04:09:50;14.80;99.90
52481;DHT22;38393;52.404;13.532;2023-08-07T04:12:16;14.80;99.90
52481;DHT22;38393;52.404;13.532;2023-08-07T04:14:41;14.80;99.90
52481;DHT22;38393;52.404;13.532;2023-08-07T04:17:06;14.90;99.90
52481;DHT22;38393;52.404;13.532;2023-08-07T04:19:32;14.90;99.90
52481;DHT22;38393;52.404;13.532;2023-08-07T04:21:58;15.00;99.90
52481;DHT22;38393;52.404;13.532;2023-08-07T04:24:23;15.00;99.90
52481;DHT22;38393;52.404;13.532;2023-08-07T04:26:49;15.00;99.90
52481;DHT22;38393;52.404;13.532;2023-08-07T04:29:14;15.00;99.90
52481;DHT22;38393;52.404;13.532;2023-08-07T04:31:39;15.00;99.90
52481;DHT22;38393;52.404;13.532;2023-08-07T04:34:05;15.00;99.90
52481;DHT22;38393;52.404;13.532;2023-08-07T04:36:30;15.00;99.90
52481;DHT22;38393;52.404;13.532;2023-08-07T04:38:56;15.10;99.90
52481;DHT22;38393;52.404;13.532;2023-08-07T04:41:22;15.10;99.90
52481;DHT22;38393;52.404;13.532;2023-08-07T04:43:47;15.20;99.90
52481;DHT22;38393;52.404;13.532;2023-08-07T04:46:14;15.30;99.90
52481;DHT22;38393;52.404;13.532;2023-08-07T04:48:40;15.20;99.90
52481;DHT22;38393;52.404;13.532;2023-08-07T04:51:05;15.30;99.90
52481;DHT22;38393;52.404;13.532;2023-08-07T04:53:31;15.30;99.90
52481;DHT22;38393;52.404;13.532;2023-08-07T04:55:56;15.30;99.90
52481;DHT22;38393;52.404;13.532;2023-08-07T04:58:22;15.40;99.90
52481;DHT22;38393;52.404;13.532;2023-08-07T05:00:47;15.30;99.90
52481;DHT22;38393;52.404;13.532;2023-08-07T05:03:13;15.40;99.90
52481;DHT22;38393;52.404;13.532;2023-08-07T05:05:40;15.30;99.90
52481;DHT22;38393;52.404;13.532;2023-08-07T05:08:06;15.30;99.90
52481;DHT22;38393;52.404;13.532;2023-08-07T05:10:31;15.30;99.90
52481;DHT22;38393;52.404;13.532;2023-08-07T05:12:57;15.30;99.90
52481;DHT22;38393;52.404;13.532;2023-08-07T05:15:23;15.30;99.90
52481;DHT22;38393;52.404;13.532;2023-08-07T05:17:50;15.30;99.90
52481;DHT22;38393;52.404;13.532;2023-08-07T05:20:16;15.40;99.90
52481;DHT22;38393;52.404;13.532;2023-08-07T05:22:42;15.40;99.90
52481;DHT22;38393;52.404;13.532;2023-08-07T05:25:08;15.30;99.90
52481;DHT22;38393;52.404;13.532;2023-08-07T05:27:35;15.50;99.90
52481;DHT22;38393;52.404;13.532;2023-08-07T05:30:00;15.60;99.90
52481;DHT22;38393;52.404;13.532;2023-08-07T05:32:26;15.50;99.90
52481;DHT22;38393;52.404;13.532;2023-08-07T05:34:51;15.50;99.90
52481;DHT22;38393;52.404;13.532;2023-08-07T05:37:17;15.60;99.90
52481;DHT22;38393;52.404;13.532;2023-08-07T05:39:42;15.70;99.90
52481;DHT22;38393;52.404;13.532;2023-08-07T05:42:08;15.60;99.90
52481;DHT22;38393;52.404;13.532;2023-08-07T05:44:35;15.60;99.90
52481;DHT22;38393;52.404;13.532;2023-08-07T05:47:00;15.50;99.90
52481;DHT22;38393;52.404;13.532;2023-08-07T05:49:26;15.50;99.90
52481;DHT22;38393;52.404;13.532;2023-08-07T05:51:51;15.60;99.90
52481;DHT22;38393;52.404;13.532;2023-08-07T05:54:17;15.60;99.90
52481;DHT22;38393;52.404;13.532;2023-08-07T05:56:42;15.60;99.90
52481;DHT22;38393;52.404;13.532;2023-08-07T05:59:08;15.50;99.90
52481;DHT22;38393;52.404;13.532;2023-08-07T06:01:33;15.60;99.90
52481;DHT22;38393;52.404;13.532;2023-08-07T06:03:59;15.70;99.90
52481;DHT22;38393;52.404;13.532;2023-08-07T06:06:25;15.80;99.90
52481;DHT22;38393;52.404;13.532;2023-08-07T06:08:53;16.00;99.90
52481;DHT22;38393;52.404;13.532;2023-08-07T06:11:19;15.70;99.90
52481;DHT22;38393;52.404;13.532;2023-08-07T06:13:44;15.80;99.90
52481;DHT22;38393;52.404;13.532;2023-08-07T06:16:10;15.80;99.90
52481;DHT22;38393;52.404;13.532;2023-08-07T06:18:36;15.70;99.90
52481;DHT22;38393;52.404;13.532;2023-08-07T06:21:02;15.90;99.90
52481;DHT22;38393;52.404;13.532;2023-08-07T06:23:29;16.00;99.90
52481;DHT22;38393;52.404;13.532;2023-08-07T06:25:54;15.90;99.90
52481;DHT22;38393;52.404;13.532;2023-08-07T06:28:20;16.10;99.90
52481;DHT22;38393;52.404;13.532;2023-08-07T06:30:46;16.30;99.90
52481;DHT22;38393;52.404;13.532;2023-08-07T06:33:12;16.40;99.90
52481;DHT22;38393;52.404;13.532;2023-08-07T06:35:38;16.40;99.90
52481;DHT22;38393;52.404;13.532;2023-08-07T06:38:04;16.40;99.90
52481;DHT22;38393;52.404;13.532;2023-08-07T06:40:30;16.50;99.90
52481;DHT22;38393;52.404;13.532;2023-08-07T06:42:55;16.60;99.90
52481;DHT22;38393;52.404;13.532;2023-08-07T06:45:21;16.70;99.90
52481;DHT22;38393;52.404;13.532;2023-08-07T06:47:46;16.90;99.90
52481;DHT22;38393;52.404;13.532;2023-08-07T06:50:13;16.70;99.90
52481;DHT22;38393;52.404;13.532;2023-08-07T06:52:39;16.70;99.90
52481;DHT22;38393;52.404;13.532;2023-08-07T06:55:04;16.80;99.90
52481;DHT22;38393;52.404;13.532;2023-08-07T06:57:30;16.90;99.90
52481;DHT22;38393;52.404;13.532;2023-08-07T06:59:55;16.90;99.90
52481;DHT22;38393;52.404;13.532;2023-08-07T07:02:21;17.20;99.90
52481;DHT22;38393;52.404;13.532;2023-08-07T07:04:46;17.30;99.90
52481;DHT22;38393;52.404;13.532;2023-08-07T07:07:12;17.30;99.90
52481;DHT22;38393;52.404;13.532;2023-08-07T07:09:37;17.40;99.90
52481;DHT22;38393;52.404;13.532;2023-08-07T07:12:03;17.50;99.90
52481;DHT22;38393;52.404;13.532;2023-08-07T07:14:29;17.50;99.90
52481;DHT22;38393;52.404;13.532;2023-08-07T07:16:54;17.50;99.90
52481;DHT22;38393;52.404;13.532;2023-08-07T07:19:19;17.60;99.90
52481;DHT22;38393;52.404;13.532;2023-08-07T07:21:45;17.70;99.90
52481;DHT22;38393;52.404;13.532;2023-08-07T07:24:10;17.70;99.90
52481;DHT22;38393;52.404;13.532;2023-08-07T07:26:36;17.70;99.90
52481;DHT22;38393;52.404;13.532;2023-08-07T07:29:01;17.70;99.90
52481;DHT22;38393;52.404;13.532;2023-08-07T07:31:27;17.70;99.90
52481;DHT22;38393;52.404;13.532;2023-08-07T07:33:53;17.80;99.90
52481;DHT22;38393;52.404;13.532;2023-08-07T07:36:19;17.90;99.90
52481;DHT22;38393;52.404;13.532;2023-08-07T07:38:45;17.90;99.90
52481;DHT22;38393;52.404;13.532;2023-08-07T07:41:12;17.90;99.90
52481;DHT22;38393;52.404;13.532;2023-08-07T07:43:37;17.90;99.90
52481;DHT22;38393;52.404;13.532;2023-08-07T07:46:03;17.80;99.90
52481;DHT22;38393;52.404;13.532;2023-08-07T07:48:29;17.70;99.90
52481;DHT22;38393;52.404;13.532;2023-08-07T07:51:01;17.70;99.90
52481;DHT22;38393;52.404;13.532;2023-08-07T07:53:27;17.70;99.90
52481;DHT22;38393;52.404;13.532;2023-08-07T07:55:53;17.80;99.90
52481;DHT22;38393;52.404;13.532;2023-08-07T07:58:19;17.70;99.90
52481;DHT22;38393;52.404;13.532;2023-08-07T08:00:45;17.80;99.90
52481;DHT22;38393;52.404;13.532;2023-08-07T08:03:11;17.90;99.90
52481;DHT22;38393;52.404;13.532;2023-08-07T08:05:37;18.00;99.90
52481;DHT22;38393;52.404;13.532;2023-08-07T08:08:03;17.90;99.90
52481;DHT22;38393;52.404;13.532;2023-08-07T08:10:28;18.00;99.90
52481;DHT22;38393;52.404;13.532;2023-08-07T08:12:57;18.20;99.90
52481;DHT22;38393;52.404;13.532;2023-08-07T08:15:22;18.10;99.90
52481;DHT22;38393;52.404;13.532;2023-08-07T08:17:48;17.90;99.90
52481;DHT22;38393;52.404;13.532;2023-08-07T08:20:14;17.90;99.90
52481;DHT22;38393;52.404;13.532;2023-08-07T08:22:44;18.10;99.90
52481;DHT22;38393;52.404;13.532;2023-08-07T08:25:10;18.20;99.90
52481;DHT22;38393;52.404;13.532;2023-08-07T08:27:40;18.30;99.90
52481;DHT22;38393;52.404;13.532;2023-08-07T08:30:06;18.10;99.90
52481;DHT22;38393;52.404;13.532;2023-08-07T08:32:32;17.90;99.90
52481;DHT22;38393;52.404;13.532;2023-08-07T08:34:57;17.80;99.90
52481;DHT22;38393;52.404;13.532;2023-08-07T08:37:23;17.70;99.90
52481;DHT22;38393;52.404;13.532;2023-08-07T08:39:48;17.50;99.90
52481;DHT22;38393;52.404;13.532;2023-08-07T08:42:15;17.60;99.90
52481;DHT22;38393;52.404;13.532;2023-08-07T08:44:46;17.60;99.90
52481;DHT22;38393;52.404;13.532;2023-08-07T08:47:14;17.90;99.90
52481;DHT22;38393;52.404;13.532;2023-08-07T08:49:51;18.30;99.90
52481;DHT22;38393;52.404;13.532;2023-08-07T08:52:19;18.40;99.90
52481;DHT22;38393;52.404;13.532;2023-08-07T08:54:47;18.60;99.90
52481;DHT22;38393;52.404;13.532;2023-08-07T08:57:22;18.50;99.90
52481;DHT22;38393;52.404;13.532;2023-08-07T08:59:48;18.00;99.90
52481;DHT22;38393;52.404;13.532;2023-08-07T09:02:14;18.00;99.90
52481;DHT22;38393;52.404;13.532;2023-08-07T09:04:40;17.90;99.90
52481;DHT22;38393;52.404;13.532;2023-08-07T09:07:07;17.80;99.90
52481;DHT22;38393;52.404;13.532;2023-08-07T09:09:33;17.30;99.90
52481;DHT22;38393;52.404;13.532;2023-08-07T09:12:00;17.20;99.90
52481;DHT22;38393;52.404;13.532;2023-08-07T09:14:27;17.40;99.90
52481;DHT22;38393;52.404;13.532;2023-08-07T09:16:59;17.80;99.90
52481;DHT22;38393;52.404;13.532;2023-08-07T09:19:26;18.30;99.90
52481;DHT22;38393;52.404;13.532;2023-08-07T09:21:51;18.30;99.90
52481;DHT22;38393;52.404;13.532;2023-08-07T09:24:17;18.30;99.90
52481;DHT22;38393;52.404;13.532;2023-08-07T09:26:44;18.20;99.90
52481;DHT22;38393;52.404;13.532;2023-08-07T09:29:09;17.80;99.90
52481;DHT22;38393;52.404;13.532;2023-08-07T09:31:37;17.30;99.90
52481;DHT22;38393;52.404;13.532;2023-08-07T09:34:03;16.50;99.90
52481;DHT22;38393;52.404;13.532;2023-08-07T09:36:31;16.20;99.90
52481;DHT22;38393;52.404;13.532;2023-08-07T09:39:00;16.30;99.90
52481;DHT22;38393;52.404;13.532;2023-08-07T09:41:26;16.50;99.90
52481;DHT22;38393;52.404;13.532;2023-08-07T09:43:54;16.50;99.90
52481;DHT22;38393;52.404;13.532;2023-08-07T09:46:19;16.80;99.90
52481;DHT22;38393;52.404;13.532;2023-08-07T09:48:45;17.10;99.90
52481;DHT22;38393;52.404;13.532;2023-08-07T09:51:10;17.10;99.90
52481;DHT22;38393;52.404;13.532;2023-08-07T09:53:36;17.30;99.90
52481;DHT22;38393;52.404;13.532;2023-08-07T09:56:02;17.40;99.90
52481;DHT22;38393;52.404;13.532;2023-08-07T09:58:28;17.40;99.90
52481;DHT22;38393;52.404;13.532;2023-08-07T10:00:54;17.40;99.90
52481;DHT22;38393;52.404;13.532;2023-08-07T10:03:21;17.40;99.90
52481;DHT22;38393;52.404;13.532;2023-08-07T10:05:47;17.60;99.90
52481;DHT22;38393;52.404;13.532;2023-08-07T10:08:13;17.50;99.90
52481;DHT22;38393;52.404;13.532;2023-08-07T10:10:39;17.60;99.90
52481;DHT22;38393;52.404;13.532;2023-08-07T10:13:04;17.90;99.90
52481;DHT22;38393;52.404;13.532;2023-08-07T10:15:32;17.90;99.90
52481;DHT22;38393;52.404;13.532;2023-08-07T10:17:58;18.00;99.90
52481;DHT22;38393;52.404;13.532;2023-08-07T10:20:26;18.00;99.90
52481;DHT22;38393;52.404;13.532;2023-08-07T10:22:52;18.20;99.90
52481;DHT22;38393;52.404;13.532;2023-08-07T10:25:21;18.30;99.90
52481;DHT22;38393;52.404;13.532;2023-08-07T10:27:49;18.40;99.90
52481;DHT22;38393;52.404;13.532;2023-08-07T10:30:18;18.40;99.90
52481;DHT22;38393;52.404;13.532;2023-08-07T10:32:45;18.40;99.90
52481;DHT22;38393;52.404;13.532;2023-08-07T10:35:24;18.50;99.90
52481;DHT22;38393;52.404;13.532;2023-08-07T10:37:51;18.50;99.90
52481;DHT22;38393;52.404;13.532;2023-08-07T10:40:16;18.70;99.90
52481;DHT22;38393;52.404;13.532;2023-08-07T10:42:58;18.80;99.90
52481;DHT22;38393;52.404;13.532;2023-08-07T10:45:25;18.90;99.90
52481;DHT22;38393;52.404;13.532;2023-08-07T10:48:17;18.70;98.80
52481;DHT22;38393;52.404;13.532;2023-08-07T10:53:31;18.90;99.40
52481;DHT22;38393;52.404;13.532;2023-08-07T10:56:04;19.00;98.70
52481;DHT22;38393;52.404;13.532;2023-08-07T10:58:36;18.90;98.20
52481;DHT22;38393;52.404;13.532;2023-08-07T11:01:22;18.90;97.10
52481;DHT22;38393;52.404;13.532;2023-08-07T11:03:58;18.70;96.80
52481;DHT22;38393;52.404;13.532;2023-08-07T11:06:24;18.70;97.00
52481;DHT22;38393;52.404;13.532;2023-08-07T11:08:52;18.90;98.10
52481;DHT22;38393;52.404;13.532;2023-08-07T11:11:17;19.00;96.60
52481;DHT22;38393;52.404;13.532;2023-08-07T11:13:43;19.00;95.00
52481;DHT22;38393;52.404;13.532;2023-08-07T11:16:09;19.00;95.00
52481;DHT22;38393;52.404;13.532;2023-08-07T11:18:35;18.70;95.40
52481;DHT22;38393;52.404;13.532;2023-08-07T11:21:07;18.60;95.30
52481;DHT22;38393;52.404;13.532;2023-08-07T11:23:33;18.60;96.70
52481;DHT22;38393;52.404;13.532;2023-08-07T11:25:58;18.80;96.00
52481;DHT22;38393;52.404;13.532;2023-08-07T11:28:24;19.10;94.50
52481;DHT22;38393;52.404;13.532;2023-08-07T11:30:53;19.00;94.00
52481;DHT22;38393;52.404;13.532;2023-08-07T11:33:19;19.20;94.40
52481;DHT22;38393;52.404;13.532;2023-08-07T11:35:45;19.40;93.50
52481;DHT22;38393;52.404;13.532;2023-08-07T11:38:11;19.50;93.40
52481;DHT22;38393;52.404;13.532;2023-08-07T11:40:37;19.60;92.90
52481;DHT22;38393;52.404;13.532;2023-08-07T11:43:02;19.30;93.90
52481;DHT22;38393;52.404;13.532;2023-08-07T11:45:28;19.50;93.10
52481;DHT22;38393;52.404;13.532;2023-08-07T11:47:54;19.00;94.10
52481;DHT22;38393;52.404;13.532;2023-08-07T11:50:21;18.90;95.30
52481;DHT22;38393;52.404;13.532;2023-08-07T11:52:47;18.50;96.90
52481;DHT22;38393;52.404;13.532;2023-08-07T11:55:14;18.60;99.90
52481;DHT22;38393;52.404;13.532;2023-08-07T11:57:40;18.60;99.60
52481;DHT22;38393;52.404;13.532;2023-08-07T12:00:08;18.70;99.90
52481;DHT22;38393;52.404;13.532;2023-08-07T12:02:42;19.00;98.70
52481;DHT22;38393;52.404;13.532;2023-08-07T12:05:08;19.20;99.40
52481;DHT22;38393;52.404;13.532;2023-08-07T12:07:36;19.40;97.30
52481;DHT22;38393;52.404;13.532;2023-08-07T12:10:06;19.50;96.60
52481;DHT22;38393;52.404;13.532;2023-08-07T12:12:36;19.50;96.60
52481;DHT22;38393;52.404;13.532;2023-08-07T12:15:03;19.40;96.90
52481;DHT22;38393;52.404;13.532;2023-08-07T12:17:31;19.70;95.80
52481;DHT22;38393;52.404;13.532;2023-08-07T12:19:58;19.80;95.00
52481;DHT22;38393;52.404;13.532;2023-08-07T12:22:24;19.80;96.10
52481;DHT22;38393;52.404;13.532;2023-08-07T12:24:52;20.20;97.20
52481;DHT22;38393;52.404;13.532;2023-08-07T12:27:17;20.40;96.30
52481;DHT22;38393;52.404;13.532;2023-08-07T12:29:43;20.00;96.00
52481;DHT22;38393;52.404;13.532;2023-08-07T12:32:08;20.00;96.50
52481;DHT22;38393;52.404;13.532;2023-08-07T12:34:35;20.10;94.60
52481;DHT22;38393;52.404;13.532;2023-08-07T12:37:01;20.00;94.60
52481;DHT22;38393;52.404;13.532;2023-08-07T12:39:26;20.10;93.40
52481;DHT22;38393;52.404;13.532;2023-08-07T12:41:52;20.10;94.90
52481;DHT22;38393;52.404;13.532;2023-08-07T12:44:17;20.10;94.30
52481;DHT22;38393;52.404;13.532;2023-08-07T12:46:43;20.10;94.00
52481;DHT22;38393;52.404;13.532;2023-08-07T12:49:09;20.00;93.40
52481;DHT22;38393;52.404;13.532;2023-08-07T12:51:34;20.30;93.10
52481;DHT22;38393;52.404;13.532;2023-08-07T12:54:00;20.30;93.60
52481;DHT22;38393;52.404;13.532;2023-08-07T12:56:25;20.20;90.90
52481;DHT22;38393;52.404;13.532;2023-08-07T12:58:51;20.20;91.00
52481;DHT22;38393;52.404;13.532;2023-08-07T13:01:16;20.50;90.00
52481;DHT22;38393;52.404;13.532;2023-08-07T13:03:42;20.80;89.60
52481;DHT22;38393;52.404;13.532;2023-08-07T13:06:07;20.70;86.30
52481;DHT22;38393;52.404;13.532;2023-08-07T13:08:34;20.70;83.30
52481;DHT22;38393;52.404;13.532;2023-08-07T13:11:01;20.30;83.30
52481;DHT22;38393;52.404;13.532;2023-08-07T13:13:26;19.80;84.90
52481;DHT22;38393;52.404;13.532;2023-08-07T13:15:53;19.30;89.00
52481;DHT22;38393;52.404;13.532;2023-08-07T13:18:19;18.70;97.90
52481;DHT22;38393;52.404;13.532;2023-08-07T13:20:45;17.90;99.90
52481;DHT22;38393;52.404;13.532;2023-08-07T13:23:11;17.30;99.90
52481;DHT22;38393;52.404;13.532;2023-08-07T13:25:37;17.30;99.90
52481;DHT22;38393;52.404;13.532;2023-08-07T13:28:03;17.40;99.90
52481;DHT22;38393;52.404;13.532;2023-08-07T13:30:35;17.70;99.90
52481;DHT22;38393;52.404;13.532;2023-08-07T13:33:00;18.00;99.90
52481;DHT22;38393;52.404;13.532;2023-08-07T13:35:26;18.40;99.90
52481;DHT22;38393;52.404;13.532;2023-08-07T13:37:52;18.40;99.90
52481;DHT22;38393;52.404;13.532;2023-08-07T13:40:17;18.40;99.90
52481;DHT22;38393;52.404;13.532;2023-08-07T13:42:44;18.40;99.90
52481;DHT22;38393;52.404;13.532;2023-08-07T13:45:09;18.50;99.90
52481;DHT22;38393;52.404;13.532;2023-08-07T13:47:35;18.40;99.90
52481;DHT22;38393;52.404;13.532;2023-08-07T13:50:01;18.50;99.90
52481;DHT22;38393;52.404;13.532;2023-08-07T13:52:27;18.80;99.90
52481;DHT22;38393;52.404;13.532;2023-08-07T13:54:53;18.80;99.90
52481;DHT22;38393;52.404;13.532;2023-08-07T13:57:18;18.80;99.90
52481;DHT22;38393;52.404;13.532;2023-08-07T13:59:44;18.70;99.90
52481;DHT22;38393;52.404;13.532;2023-08-07T14:02:09;18.90;99.90
52481;DHT22;38393;52.404;13.532;2023-08-07T14:04:35;19.10;98.30
52481;DHT22;38393;52.404;13.532;2023-08-07T14:07:02;19.40;97.20
52481;DHT22;38393;52.404;13.532;2023-08-07T14:09:27;19.60;96.00
52481;DHT22;38393;52.404;13.532;2023-08-07T14:11:53;19.60;96.50
52481;DHT22;38393;52.404;13.532;2023-08-07T14:14:18;19.70;94.70
52481;DHT22;38393;52.404;13.532;2023-08-07T14:16:44;19.80;92.50
52481;DHT22;38393;52.404;13.532;2023-08-07T14:19:09;19.70;92.10
52481;DHT22;38393;52.404;13.532;2023-08-07T14:21:35;19.80;91.20
52481;DHT22;38393;52.404;13.532;2023-08-07T14:24:00;19.80;87.40
52481;DHT22;38393;52.404;13.532;2023-08-07T14:26:26;19.60;85.70
52481;DHT22;38393;52.404;13.532;2023-08-07T14:28:51;19.60;87.10
52481;DHT22;38393;52.404;13.532;2023-08-07T14:31:17;19.60;86.20
52481;DHT22;38393;52.404;13.532;2023-08-07T14:33:42;19.50;82.70
52481;DHT22;38393;52.404;13.532;2023-08-07T14:36:08;19.40;80.70
52481;DHT22;38393;52.404;13.532;2023-08-07T14:38:33;19.30;81.90
52481;DHT22;38393;52.404;13.532;2023-08-07T14:40:59;19.30;81.00
52481;DHT22;38393;52.404;13.532;2023-08-07T14:43:25;19.30;81.00
52481;DHT22;38393;52.404;13.532;2023-08-07T14:45:54;19.20;81.40
52481;DHT22;38393;52.404;13.532;2023-08-07T14:48:20;19.10;81.30
52481;DHT22;38393;52.404;13.532;2023-08-07T14:50:46;19.10;81.70
52481;DHT22;38393;52.404;13.532;2023-08-07T14:53:11;19.10;85.60
52481;DHT22;38393;52.404;13.532;2023-08-07T14:55:37;19.20;84.30
52481;DHT22;38393;52.404;13.532;2023-08-07T14:58:02;19.20;81.10
52481;DHT22;38393;52.404;13.532;2023-08-07T15:00:28;19.20;81.30
52481;DHT22;38393;52.404;13.532;2023-08-07T15:02:53;19.30;77.40
52481;DHT22;38393;52.404;13.532;2023-08-07T15:05:19;19.50;76.50
52481;DHT22;38393;52.404;13.532;2023-08-07T15:07:44;19.50;75.70
52481;DHT22;38393;52.404;13.532;2023-08-07T15:10:10;19.30;74.80
52481;DHT22;38393;52.404;13.532;2023-08-07T15:12:35;19.30;75.80
52481;DHT22;38393;52.404;13.532;2023-08-07T15:15:02;19.10;74.00
52481;DHT22;38393;52.404;13.532;2023-08-07T15:17:27;19.20;74.10